Time;durP1;ratioP1;P1;durP2;ratioP2;P2;SDS_P1;SDS_P2;PMS_P1;PMS_P2;Temp;Humidity;BMP_temperature;BMP_pressure;BME280_temperature;BME280_humidity;BME280_pressure;Samples;Min_cycle;Max_cycle;Signal;HPM_P1;HPM_P2
2023/09/16 00:01:19;;;;;;;;;;;;;;;13.07;61.28;101083.36;109493;1271;21952;-84
2023/09/16 00:04:15;;;;;;;;;;;;;;;13.04;61.27;101084.20;109818;1271;22709;-81
2023/09/16 00:06:54;;;;;;;;;;;;;;;12.99;61.49;101081.73;109627;1270;21961;-81
2023/09/16 00:09:55;;;;;;;;;;;;;;;;;;;;;
2023/09/16 00:13:03;;;;;;;;;;;;;;;12.91;61.64;101080.30;109680;1271;21960;-81
2023/09/16 00:15:53;;;;;;;;;;;;;;;12.85;61.44;101078.56;110065;1265;21995;-80
2023/09/16 00:18:48;;;;;;;;;;;;;;;12.75;61.64;101068.11;110363;1265;22037;-81
2023/09/16 00:21:55;;;;;;;;;;;;;;;12.77;61.75;101079.38;110369;1265;24434;-80
2023/09/16 00:24:53;;;;;;;;;;;;;;;12.75;62.16;101076.84;110298;1265;21980;-81
2023/09/16 00:27:58;;;;;;;;;;;;;;;12.75;62.20;101074.08;110773;1258;21961;-82
2023/09/16 00:31:19;;;;;;;;;;;;;;;12.70;62.32;101066.02;110997;1255;21936;-82
2023/09/16 00:34:07;;;;;;;;;;;;;;;12.71;62.24;101070.70;111260;1255;22253;-81
2023/09/16 00:37:16;;;;;;;;;;;;;;;12.68;62.27;101069.73;111343;1255;23043;-81
2023/09/16 00:40:07;;;;;;;;;;;;;;;12.66;62.33;101066.50;111357;1255;21893;-80
2023/09/16 00:42:43;;;;;;;;;;;;;;;12.63;62.40;101066.95;111316;1255;23631;-80
2023/09/16 00:45:34;;;;;;;;;;;;;;;;;;;;;
2023/09/16 00:48:26;;;;;;;;;;;;;;;12.57;62.76;101064.91;111387;1255;21937;-80
2023/09/16 00:51:06;;;;;;;;;;;;;;;12.56;62.83;101064.76;111100;1255;22330;-81
2023/09/16 00:53:45;;;;;;;;;;;;;;;12.56;62.99;101065.83;111095;1255;23020;-78
2023/09/16 00:56:15;;;;;;;;;;;;;;;12.53;62.86;101063.98;111251;1251;21944;-80
2023/09/16 00:58:45;;;;;;;;;;;;;;;12.52;62.89;101061.59;110845;1255;22187;-81
2023/09/16 01:01:24;;;;;;;;;;;;;;;12.49;63.02;101063.40;111300;1255;23014;-80
2023/09/16 01:04:08;;;;;;;;;;;;;;;12.48;63.09;101064.16;111228;1254;22699;-79
2023/09/16 01:06:44;;;;;;;;;;;;;;;12.45;63.08;101062.87;111225;1255;21939;-80
2023/09/16 01:09:21;;;;;;;;;;;;;;;12.41;63.06;101062.48;111079;1255;23013;-79
2023/09/16 01:11:51;;;;;;;;;;;;;;;12.38;63.24;101064.85;111298;1254;21943;-80
2023/09/16 01:14:25;;;;;;;;;;;;;;;12.37;63.41;101061.21;111201;1255;21958;-81
2023/09/16 01:17:05;;;;;;;;;;;;;;;12.36;63.26;101060.89;110809;1260;21938;-81
2023/09/16 01:20:06;;;;;;;;;;;;;;;12.35;63.24;101059.37;110742;1260;23726;-80
2023/09/16 01:22:45;;;;;;;;;;;;;;;12.31;63.39;101056.71;110079;1266;23576;-79
2023/09/16 01:25:17;;;;;;;;;;;;;;;12.27;63.25;101055.96;109671;1271;23149;-80
2023/09/16 01:27:50;;;;;;;;;;;;;;;12.21;63.22;101052.83;109619;1272;22057;-82
2023/09/16 01:30:26;;;;;;;;;;;;;;;12.16;63.11;101053.20;109106;1274;22461;-80
2023/09/16 01:33:30;;;;;;;;;;;;;;;12.12;63.35;101050.89;109046;1277;22057;-80
2023/09/16 01:36:12;;;;;;;;;;;;;;;12.08;63.52;101055.36;109073;1277;24371;-81
2023/09/16 01:38:45;;;;;;;;;;;;;;;12.06;63.69;101058.56;108976;1278;21955;-79
2023/09/16 01:41:21;;;;;;;;;;;;;;;12.04;63.61;101058.11;108976;1273;23586;-80
2023/09/16 01:43:54;;;;;;;;;;;;;;;12.02;63.66;101062.17;109960;1268;21939;-80
2023/09/16 01:46:37;;;;;;;;;;;;;;;12.01;63.81;101064.13;110275;1268;21986;-82
2023/09/16 01:49:16;;;;;;;;;;;;;;;12.02;63.86;101069.20;110528;1263;21972;-83
2023/09/16 01:52:17;;;;;;;;;;;;;;;12.02;63.91;101073.55;110673;1263;23009;-82
2023/09/16 01:55:41;;;;;;;;;;;;;;;12.01;64.04;101075.48;110724;1263;23714;-81
2023/09/16 01:58:18;;;;;;;;;;;;;;;11.97;64.14;101064.63;110665;1259;21965;-81
2023/09/16 02:01:22;;;;;;;;;;;;;;;12.03;64.09;101073.51;111081;1255;22681;-80
2023/09/16 02:04:29;;;;;;;;;;;;;;;12.01;64.15;101071.13;110784;1261;21940;-82
2023/09/16 02:08:10;;;;;;;;;;;;;;;12.00;64.08;101070.10;110423;1265;23774;-81
2023/09/16 02:11:22;;;;;;;;;;;;;;;11.95;64.02;101066.95;110296;1265;23055;-81
2023/09/16 02:14:49;;;;;;;;;;;;;;;;;;;;;
2023/09/16 02:17:57;;;;;;;;;;;;;;;11.83;64.27;101061.90;109558;1271;22042;-80
2023/09/16 02:20:58;;;;;;;;;;;;;;;;;;;;;
2023/09/16 02:24:21;;;;;;;;;;;;;;;11.76;64.24;101062.66;109948;1270;22893;-82
2023/09/16 02:27:00;;;;;;;;;;;;;;;11.75;64.41;101067.55;109586;1270;22735;-81
2023/09/16 02:29:37;;;;;;;;;;;;;;;11.76;64.45;101065.45;110158;1265;22887;-80
2023/09/16 02:32:29;;;;;;;;;;;;;;;11.78;64.50;101067.27;110044;1266;23803;-80
2023/09/16 02:35:03;;;;;;;;;;;;;;;11.82;64.62;101067.17;109591;1270;21989;-82
2023/09/16 02:37:43;;;;;;;;;;;;;;;11.83;64.40;101064.35;109614;1270;22621;-81
2023/09/16 02:40:41;;;;;;;;;;;;;;;11.84;64.46;101064.33;109631;1271;23049;-82
2023/09/16 02:43:14;;;;;;;;;;;;;;;11.85;64.46;101064.79;109286;1275;23157;-79
2023/09/16 02:45:56;;;;;;;;;;;;;;;11.86;64.60;101068.61;109347;1275;22928;-81
2023/09/16 02:48:29;;;;;;;;;;;;;;;11.87;64.59;101066.64;108984;1281;23036;-80
2023/09/16 02:51:51;;;;;;;;;;;;;;;;;;;;;
2023/09/16 02:59:29;;;;;;;;;;;;;;;;;;;;;
2023/09/16 03:02:49;;;;;;;;;;;;;;;11.75;64.25;101062.14;109219;1275;21944;-82
2023/09/16 03:05:48;;;;;;;;;;;;;;;11.69;64.15;101064.42;109171;1275;21961;-81
2023/09/16 03:08:23;;;;;;;;;;;;;;;11.62;64.20;101064.13;109199;1275;21978;-79
2023/09/16 03:11:06;;;;;;;;;;;;;;;11.56;64.33;101061.68;109251;1275;21986;-80
2023/09/16 03:13:49;;;;;;;;;;;;;;;11.54;64.53;101060.88;109313;1272;22730;-80
2023/09/16 03:16:23;;;;;;;;;;;;;;;11.51;64.49;101059.58;109607;1272;22264;-80
2023/09/16 03:19:07;;;;;;;;;;;;;;;11.48;64.51;101058.79;109165;1275;22012;-82
2023/09/16 03:21:47;;;;;;;;;;;;;;;11.47;64.70;101058.82;109209;1275;23615;-79
2023/09/16 03:24:38;;;;;;;;;;;;;;;11.46;64.74;101053.27;108860;1279;21969;-80
2023/09/16 03:27:17;;;;;;;;;;;;;;;11.44;64.73;101051.94;108925;1279;23053;-81
2023/09/16 03:30:07;;;;;;;;;;;;;;;11.41;64.81;101049.08;108706;1282;23085;-82
2023/09/16 03:33:14;;;;;;;;;;;;;;;11.38;64.67;101041.87;109071;1277;23687;-81
2023/09/16 03:37:08;;;;;;;;;;;;;;;;;;;;;
2023/09/16 03:40:33;;;;;;;;;;;;;;;11.27;64.90;101042.70;109019;1277;23602;-81
2023/09/16 03:43:15;;;;;;;;;;;;;;;11.24;65.13;101041.56;109324;1274;22729;-80
2023/09/16 03:46:34;;;;;;;;;;;;;;;11.21;64.93;101039.90;109271;1274;24301;-81
2023/09/16 03:50:01;;;;;;;;;;;;;;;11.15;65.21;101037.98;109402;1274;22106;-81
2023/09/16 03:52:50;;;;;;;;;;;;;;;;;;;;;
2023/09/16 03:56:08;;;;;;;;;;;;;;;11.10;65.43;101033.61;109887;1269;23754;-82
2023/09/16 03:58:47;;;;;;;;;;;;;;;11.08;65.49;101031.42;109629;1269;23022;-81
2023/09/16 04:01:22;;;;;;;;;;;;;;;11.05;65.73;101029.58;109709;1269;21964;-82
2023/09/16 04:04:26;;;;;;;;;;;;;;;11.00;65.68;101024.84;109649;1268;21978;-83
2023/09/16 04:07:09;;;;;;;;;;;;;;;10.93;65.73;101024.69;109794;1262;21946;-81
2023/09/16 04:09:38;;;;;;;;;;;;;;;10.90;65.93;101023.38;110984;1255;21938;-79
2023/09/16 04:12:15;;;;;;;;;;;;;;;10.90;65.89;101024.09;111394;1255;23389;-79
2023/09/16 04:14:45;;;;;;;;;;;;;;;10.88;65.69;101023.08;111194;1255;21960;-81
2023/09/16 04:17:45;;;;;;;;;;;;;;;10.85;65.94;101021.80;111409;1255;21938;-82
2023/09/16 04:20:51;;;;;;;;;;;;;;;10.83;65.98;101023.94;111526;1255;23675;-82
2023/09/16 04:24:32;;;;;;;;;;;;;;;;;;;;;
2023/09/16 04:28:02;;;;;;;;;;;;;;;;;;;;;
2023/09/16 04:31:20;;;;;;;;;;;;;;;10.88;66.52;101023.60;110691;1260;21939;-82
2023/09/16 04:34:17;;;;;;;;;;;;;;;10.86;66.63;101018.45;110940;1260;23681;-83
2023/09/16 04:38:16;;;;;;;;;;;;;;;10.92;66.59;101027.35;110939;1260;22969;-80
2023/09/16 04:41:20;;;;;;;;;;;;;;;10.93;66.56;101025.89;110681;1261;24134;-81
2023/09/16 04:44:21;;;;;;;;;;;;;;;10.95;66.55;101022.55;110690;1261;21982;-80
2023/09/16 04:48:08;;;;;;;;;;;;;;;;;;;;;
2023/09/16 04:51:39;;;;;;;;;;;;;;;10.91;66.53;101026.30;110781;1261;23164;-81
2023/09/16 04:54:09;;;;;;;;;;;;;;;10.91;66.60;101027.70;110682;1261;22013;-79
2023/09/16 04:57:09;;;;;;;;;;;;;;;10.91;66.55;101026.66;110703;1261;22422;-82
2023/09/16 04:59:59;;;;;;;;;;;;;;;10.93;66.66;101037.55;110442;1261;23068;-81
2023/09/16 05:02:33;;;;;;;;;;;;;;;10.97;66.97;101038.87;109964;1267;22415;-82
2023/09/16 05:05:37;;;;;;;;;;;;;;;11.04;67.30;101046.67;109975;1267;21962;-81
2023/09/16 05:09:41;;;;;;;;;;;;;;;11.09;67.13;101049.83;109241;1275;23711;-80
2023/09/16 05:13:23;;;;;;;;;;;;;;;11.16;67.24;101048.56;108655;1285;21995;-83
2023/09/16 05:16:35;;;;;;;;;;;;;;;11.22;67.16;101039.86;108621;1285;22001;-78
2023/09/16 05:19:22;;;;;;;;;;;;;;;11.28;66.95;101035.67;108975;1279;22168;-80
2023/09/16 05:22:21;;;;;;;;;;;;;;;11.33;66.92;101036.91;109043;1277;21995;-80
2023/09/16 05:25:12;;;;;;;;;;;;;;;11.38;66.82;101041.84;108891;1271;22190;-80
2023/09/16 05:28:51;;;;;;;;;;;;;;;11.44;67.01;101047.42;109063;1278;24305;-82
2023/09/16 05:32:10;;;;;;;;;;;;;;;;;;;;;
2023/09/16 05:39:51;;;;;;;;;;;;;;;;;;;;;
2023/09/16 05:53:39;;;;;;;;;;;;;;;12.01;66.55;101050.51;108512;1284;547352;-80
2023/09/16 05:56:09;;;;;;;;;;;;;;;12.26;66.66;101048.15;108378;1259;3038952;-80
2023/09/16 05:58:43;;;;;;;;;;;;;;;12.34;66.64;101037.59;110820;1260;22982;-82
2023/09/16 06:01:21;;;;;;;;;;;;;;;12.48;66.43;101032.73;110871;1258;22967;-81
2023/09/16 06:03:58;;;;;;;;;;;;;;;12.70;66.52;101045.05;111015;1259;22686;-81
2023/09/16 06:06:36;;;;;;;;;;;;;;;12.85;66.29;101041.91;111147;1257;23694;-81
2023/09/16 06:09:58;;;;;;;;;;;;;;;;;;;;;
2023/09/16 06:16:51;;;;;;;;;;;;;;;13.47;65.55;101030.52;109565;1272;21961;-81
2023/09/16 06:27:43;;;;;;;;;;;;;;;14.58;64.85;101035.43;108271;1290;23793;-81
2023/09/16 06:31:07;;;;;;;;;;;;;;;15.03;64.57;101024.86;107902;1290;21984;-78
2023/09/16 06:33:47;;;;;;;;;;;;;;;15.50;63.90;101023.71;107884;1290;22010;-81
2023/09/16 06:36:30;;;;;;;;;;;;;;;15.95;63.12;101019.96;107897;1290;21977;-81
2023/09/16 06:39:47;;;;;;;;;;;;;;;16.47;62.54;101019.84;107959;1290;22001;-81
2023/09/16 06:42:41;;;;;;;;;;;;;;;17.14;61.64;101018.23;107724;1294;22030;-80
2023/09/16 06:45:31;;;;;;;;;;;;;;;;;;;;;
2023/09/16 06:52:09;;;;;;;;;;;;;;;18.59;55.89;101024.04;108732;1280;22098;-80
2023/09/16 06:55:56;;;;;;;;;;;;;;;;;;;;;
2023/09/16 06:59:17;;;;;;;;;;;;;;;;;;;;;
2023/09/16 07:06:14;;;;;;;;;;;;;;;20.08;50.66;101020.25;108749;1281;21980;-79
2023/09/16 07:09:48;;;;;;;;;;;;;;;20.39;50.91;101020.81;108713;1281;21974;-80
2023/09/16 07:12:30;;;;;;;;;;;;;;;20.64;50.05;101019.80;108576;1285;21973;-82
2023/09/16 07:15:25;;;;;;;;;;;;;;;20.82;49.56;101021.38;108597;1284;21958;-81
2023/09/16 07:17:57;;;;;;;;;;;;;;;21.00;48.40;101021.69;108451;1285;23115;-83
2023/09/16 07:20:39;;;;;;;;;;;;;;;21.15;48.15;101025.63;108723;1282;22062;-83
2023/09/16 07:23:38;;;;;;;;;;;;;;;21.30;48.11;101023.80;108665;1282;24220;-84
2023/09/16 07:26:37;;;;;;;;;;;;;;;21.27;47.65;101023.84;108664;1286;22499;-82
2023/09/16 07:33:31;;;;;;;;;;;;;;;21.86;46.72;101021.19;108277;1290;22507;-83
2023/09/16 07:36:01;;;;;;;;;;;;;;;22.14;46.64;101022.79;108179;1286;21984;-83
2023/09/16 07:38:56;;;;;;;;;;;;;;;22.01;46.10;101016.20;108388;1286;23087;-83
2023/09/16 07:41:43;;;;;;;;;;;;;;;21.73;46.14;101020.20;107938;1287;21979;-82
2023/09/16 07:44:42;;;;;;;;;;;;;;;21.73;46.87;101023.91;108360;1287;22262;-84
2023/09/16 07:47:37;;;;;;;;;;;;;;;21.75;46.72;101022.20;108298;1287;23603;-82
2023/09/16 07:50:35;;;;;;;;;;;;;;;21.87;46.83;101018.27;108718;1281;22827;-83
2023/09/16 07:53:05;;;;;;;;;;;;;;;21.91;46.54;101022.02;108804;1283;21973;-79
2023/09/16 07:55:48;;;;;;;;;;;;;;;21.69;46.05;101021.71;108718;1283;23635;-83
2023/09/16 07:58:40;;;;;;;;;;;;;;;21.44;46.05;101014.34;108946;1282;22017;-82
2023/09/16 08:01:15;;;;;;;;;;;;;;;21.43;46.49;101013.86;108834;1277;22376;-83
2023/09/16 08:04:12;;;;;;;;;;;;;;;21.58;46.44;101008.21;109567;1272;23628;-81
2023/09/16 08:06:42;;;;;;;;;;;;;;;21.69;45.85;101005.61;109407;1269;22012;-82
2023/09/16 08:09:16;;;;;;;;;;;;;;;21.72;45.85;101000.23;109598;1268;22578;-83
2023/09/16 08:11:59;;;;;;;;;;;;;;;21.87;45.98;101000.77;109893;1259;21960;-81
2023/09/16 08:15:23;;;;;;;;;;;;;;;;;;;;;
2023/09/16 08:18:21;;;;;;;;;;;;;;;21.82;45.50;101000.39;110234;1261;23691;-81
2023/09/16 08:21:00;;;;;;;;;;;;;;;21.88;45.82;100994.27;110607;1261;23025;-81
2023/09/16 08:23:57;;;;;;;;;;;;;;;21.99;45.48;100988.67;110756;1261;22419;-82
2023/09/16 08:27:22;;;;;;;;;;;;;;;22.29;45.49;100986.56;110680;1261;23032;-80
2023/09/16 08:30:14;;;;;;;;;;;;;;;22.69;44.89;100981.84;109652;1271;24292;-82
2023/09/16 08:33:16;;;;;;;;;;;;;;;;;;;;;
2023/09/16 08:36:18;;;;;;;;;;;;;;;22.82;43.52;100983.30;109389;1273;22043;-81
2023/09/16 08:38:59;;;;;;;;;;;;;;;22.74;43.80;100990.19;108982;1278;24443;-80
2023/09/16 08:42:04;;;;;;;;;;;;;;;22.59;44.19;100990.13;108992;1278;21967;-81
2023/09/16 08:44:44;;;;;;;;;;;;;;;22.59;44.16;100987.98;109040;1278;23158;-81
2023/09/16 08:47:26;;;;;;;;;;;;;;;22.75;44.30;100990.06;108906;1272;22487;-82
2023/09/16 08:50:12;;;;;;;;;;;;;;;23.01;44.07;100993.38;109487;1272;22966;-81
2023/09/16 08:52:53;;;;;;;;;;;;;;;23.13;43.44;100990.33;109581;1271;22259;-81
2023/09/16 08:55:23;;;;;;;;;;;;;;;23.16;43.22;100982.11;109968;1267;21977;-82
2023/09/16 08:58:14;;;;;;;;;;;;;;;23.31;43.12;100975.89;110181;1267;22069;-81
2023/09/16 09:00:53;;;;;;;;;;;;;;;23.43;42.73;100970.80;110071;1266;21956;-80
2023/09/16 09:03:40;;;;;;;;;;;;;;;23.43;42.31;100966.72;110460;1262;21956;-80
2023/09/16 09:06:44;;;;;;;;;;;;;;;23.51;42.66;100960.91;110220;1268;22002;-82
2023/09/16 09:09:15;;;;;;;;;;;;;;;23.54;42.44;100952.48;110182;1268;21952;-81
2023/09/16 09:11:58;;;;;;;;;;;;;;;23.51;42.17;100950.08;109383;1273;21983;-80
2023/09/16 09:14:32;;;;;;;;;;;;;;;23.36;42.57;100940.67;109303;1273;22005;-82
2023/09/16 09:17:17;;;;;;;;;;;;;;;23.34;42.42;100940.27;109404;1274;21959;-80
2023/09/16 09:19:58;;;;;;;;;;;;;;;23.39;42.44;100939.72;109405;1273;21977;-81
2023/09/16 09:22:44;;;;;;;;;;;;;;;23.49;42.30;100932.48;109079;1270;22032;-81
2023/09/16 09:25:28;;;;;;;;;;;;;;;23.68;42.43;100934.83;109080;1275;23796;-81
2023/09/16 09:28:08;;;;;;;;;;;;;;;23.79;41.14;100932.65;109193;1275;22021;-81
2023/09/16 09:30:49;;;;;;;;;;;;;;;23.95;41.71;100928.27;109453;1271;22046;-81
2023/09/16 09:33:42;;;;;;;;;;;;;;;24.29;41.02;100929.33;109835;1271;23026;-81
2023/09/16 09:36:18;;;;;;;;;;;;;;;24.34;39.89;100929.80;109817;1271;22335;-80
2023/09/16 09:38:48;;;;;;;;;;;;;;;24.20;40.32;100933.13;109139;1276;22001;-81
2023/09/16 09:41:23;;;;;;;;;;;;;;;24.05;40.75;100924.58;109460;1270;22716;-81
2023/09/16 09:44:06;;;;;;;;;;;;;;;24.23;41.11;100920.37;109858;1264;23719;-83
2023/09/16 09:47:15;;;;;;;;;;;;;;;24.38;39.52;100918.23;109594;1269;21980;-82
2023/09/16 09:50:23;;;;;;;;;;;;;;;24.58;39.86;100916.17;110069;1269;22743;-83
2023/09/16 09:53:20;;;;;;;;;;;;;;;24.80;39.74;100911.33;110150;1267;23037;-83
2023/09/16 09:56:01;;;;;;;;;;;;;;;24.99;38.89;100911.95;110309;1266;22063;-81
2023/09/16 09:58:54;;;;;;;;;;;;;;;25.10;38.64;100912.24;110995;1260;23627;-82
2023/09/16 10:01:47;;;;;;;;;;;;;;;25.31;38.89;100911.05;110856;1260;21952;-83
2023/09/16 10:04:26;;;;;;;;;;;;;;;25.49;38.58;100908.70;110908;1256;23066;-83
2023/09/16 10:07:03;;;;;;;;;;;;;;;25.53;38.37;100911.92;110611;1263;24125;-82
2023/09/16 10:09:45;;;;;;;;;;;;;;;25.57;38.18;100911.24;109931;1269;21963;-82
2023/09/16 10:12:27;;;;;;;;;;;;;;;25.60;38.38;100912.48;109864;1269;22747;-83
2023/09/16 10:15:02;;;;;;;;;;;;;;;25.73;38.44;100907.61;109938;1269;22084;-83
2023/09/16 10:17:45;;;;;;;;;;;;;;;25.74;37.96;100901.08;109904;1269;23804;-82
2023/09/16 10:20:19;;;;;;;;;;;;;;;25.67;38.12;100899.05;110192;1259;23054;-82
2023/09/16 10:23:00;;;;;;;;;;;;;;;25.70;38.41;100899.61;109350;1268;22727;-82
2023/09/16 10:25:46;;;;;;;;;;;;;;;25.71;38.03;100899.58;110034;1266;22128;-84
2023/09/16 10:28:17;;;;;;;;;;;;;;;25.46;38.60;100892.77;110624;1261;23766;-82
2023/09/16 10:31:01;;;;;;;;;;;;;;;25.47;39.56;100888.61;110054;1268;21975;-82
2023/09/16 10:33:33;;;;;;;;;;;;;;;25.69;39.46;100886.75;109464;1273;21968;-81
2023/09/16 10:36:04;;;;;;;;;;;;;;;25.82;38.50;100885.14;109298;1276;22129;-83
2023/09/16 10:38:34;;;;;;;;;;;;;;;25.96;38.54;100884.39;109140;1276;21975;-84
2023/09/16 10:41:05;;;;;;;;;;;;;;;25.86;37.82;100882.14;109310;1272;23415;-81
2023/09/16 10:43:39;;;;;;;;;;;;;;;25.61;38.20;100876.59;109506;1271;23134;-83
2023/09/16 10:46:13;;;;;;;;;;;;;;;25.67;38.56;100876.18;109163;1276;21977;-83
2023/09/16 10:48:51;;;;;;;;;;;;;;;25.80;38.70;100878.77;109420;1272;21964;-83
2023/09/16 10:51:26;;;;;;;;;;;;;;;25.75;38.11;100876.05;109751;1268;21977;-82
2023/09/16 10:54:07;;;;;;;;;;;;;;;25.59;38.34;100874.27;110169;1262;24823;-82
2023/09/16 10:56:43;;;;;;;;;;;;;;;25.61;38.82;100868.42;110588;1262;22049;-82
2023/09/16 10:59:19;;;;;;;;;;;;;;;25.54;38.35;100862.41;110685;1262;24891;-83
2023/09/16 11:02:04;;;;;;;;;;;;;;;25.21;38.80;100864.07;110511;1262;22413;-82
2023/09/16 11:04:36;;;;;;;;;;;;;;;24.81;39.28;100859.00;110898;1256;21980;-82
2023/09/16 11:07:10;;;;;;;;;;;;;;;24.53;39.70;100850.41;111117;1256;21996;-82
2023/09/16 11:09:44;;;;;;;;;;;;;;;24.32;40.49;100854.02;110980;1254;21941;-82
2023/09/16 11:12:27;;;;;;;;;;;;;;;24.06;40.59;100853.77;110877;1256;24261;-83
2023/09/16 11:15:10;;;;;;;;;;;;;;;23.75;41.05;100858.89;110953;1253;21942;-82
2023/09/16 11:17:47;;;;;;;;;;;;;;;23.34;41.61;100848.27;111059;1256;21965;-80
2023/09/16 11:20:31;;;;;;;;;;;;;;;23.07;42.40;100837.61;111048;1256;21949;-83
2023/09/16 11:23:06;;;;;;;;;;;;;;;23.03;42.92;100833.70;111102;1256;23017;-81
2023/09/16 11:25:49;;;;;;;;;;;;;;;23.09;43.08;100830.36;111130;1256;22087;-81
2023/09/16 11:28:25;;;;;;;;;;;;;;;23.05;42.76;100831.52;111075;1256;21942;-83
2023/09/16 11:31:13;;;;;;;;;;;;;;;22.92;42.95;100827.46;110982;1256;21952;-84
2023/09/16 11:34:39;;;;;;;;;;;;;;;22.79;43.09;100819.95;111604;1256;21943;-83
2023/09/16 11:37:48;;;;;;;;;;;;;;;22.78;43.60;100828.08;110961;1261;23660;-82
2023/09/16 11:40:38;;;;;;;;;;;;;;;22.77;43.48;100824.41;110121;1266;21999;-82
2023/09/16 11:43:09;;;;;;;;;;;;;;;22.71;43.52;100824.91;110388;1258;21979;-81
2023/09/16 11:45:43;;;;;;;;;;;;;;;22.65;43.70;100825.73;110195;1266;21980;-81
2023/09/16 11:49:00;;;;;;;;;;;;;;;22.64;43.81;100829.95;110168;1266;21969;-84
2023/09/16 11:51:40;;;;;;;;;;;;;;;22.65;44.01;100830.17;109694;1271;21958;-81
2023/09/16 11:54:17;;;;;;;;;;;;;;;22.74;44.07;100831.23;109544;1272;21968;-82
2023/09/16 11:56:50;;;;;;;;;;;;;;;22.80;43.84;100830.91;109314;1274;21971;-82
2023/09/16 11:59:30;;;;;;;;;;;;;;;22.80;43.68;100827.39;109863;1268;21961;-82
2023/09/16 12:02:29;;;;;;;;;;;;;;;22.81;43.77;100824.63;109951;1268;21968;-83
2023/09/16 12:05:18;;;;;;;;;;;;;;;22.88;43.85;100827.41;109984;1263;22625;-80
2023/09/16 12:08:06;;;;;;;;;;;;;;;22.94;43.68;100828.52;109546;1273;22019;-82
2023/09/16 12:10:55;;;;;;;;;;;;;;;;;;;;;
2023/09/16 12:13:35;;;;;;;;;;;;;;;22.97;43.60;100823.33;109579;1273;23836;-82
2023/09/16 12:16:36;;;;;;;;;;;;;;;22.99;43.55;100820.63;110017;1267;21954;-81
2023/09/16 12:19:34;;;;;;;;;;;;;;;23.02;43.69;100817.98;110204;1267;23040;-83
2023/09/16 12:22:45;;;;;;;;;;;;;;;23.09;43.84;100815.09;110033;1267;21960;-83
2023/09/16 12:25:21;;;;;;;;;;;;;;;23.20;43.90;100809.18;109877;1261;22996;-82
2023/09/16 12:28:22;;;;;;;;;;;;;;;23.28;43.68;100811.52;110396;1264;23024;-82
2023/09/16 12:31:32;;;;;;;;;;;;;;;23.37;43.66;100801.56;109306;1274;21993;-82
2023/09/16 12:34:26;;;;;;;;;;;;;;;23.44;43.46;100800.79;109387;1274;22384;-82
2023/09/16 12:37:22;;;;;;;;;;;;;;;23.41;43.33;100793.43;109377;1274;23105;-83
2023/09/16 12:40:19;;;;;;;;;;;;;;;;;;;;;
2023/09/16 12:46:56;;;;;;;;;;;;;;;23.34;43.47;100786.52;109016;1278;22053;-81
2023/09/16 12:49:45;;;;;;;;;;;;;;;23.36;43.43;100784.23;109070;1276;22971;-82
2023/09/16 12:52:32;;;;;;;;;;;;;;;23.36;43.36;100782.77;108701;1281;22435;-82
2023/09/16 12:55:01;;;;;;;;;;;;;;;23.33;43.27;100779.80;108817;1279;21975;-83
2023/09/16 12:57:32;;;;;;;;;;;;;;;23.30;43.42;100774.60;108850;1279;21975;-82
2023/09/16 13:00:15;;;;;;;;;;;;;;;23.29;43.45;100772.91;109076;1275;21957;-82
2023/09/16 13:03:01;;;;;;;;;;;;;;;23.30;43.54;100770.23;108934;1278;21996;-82
2023/09/16 13:05:31;;;;;;;;;;;;;;;23.32;43.50;100775.16;109415;1274;24289;-82
2023/09/16 13:08:08;;;;;;;;;;;;;;;23.32;43.33;100775.70;109469;1269;23749;-81
2023/09/16 13:10:39;;;;;;;;;;;;;;;23.32;43.31;100771.60;109907;1270;21956;-83
2023/09/16 13:13:22;;;;;;;;;;;;;;;23.35;43.40;100772.02;109781;1265;23796;-83
2023/09/16 13:16:13;;;;;;;;;;;;;;;23.39;43.47;100773.82;109813;1265;21957;-82
2023/09/16 13:18:55;;;;;;;;;;;;;;;23.42;43.38;100772.92;109975;1265;23743;-83
2023/09/16 13:21:34;;;;;;;;;;;;;;;23.43;43.33;100770.73;110494;1257;22697;-81
2023/09/16 13:24:20;;;;;;;;;;;;;;;23.46;43.36;100771.50;111232;1256;23024;-82
2023/09/16 13:26:53;;;;;;;;;;;;;;;23.46;43.21;100768.11;110818;1261;21951;-82
2023/09/16 13:29:58;;;;;;;;;;;;;;;23.48;43.39;100763.39;109916;1268;22062;-83
2023/09/16 13:32:52;;;;;;;;;;;;;;;23.52;43.50;100763.36;110004;1268;22710;-82
2023/09/16 13:35:31;;;;;;;;;;;;;;;23.58;43.54;100760.66;109901;1268;23609;-83
2023/09/16 13:38:03;;;;;;;;;;;;;;;23.63;43.48;100756.84;109474;1273;22989;-82
2023/09/16 13:40:50;;;;;;;;;;;;;;;23.67;43.30;100763.27;109341;1267;22006;-82
2023/09/16 13:44:11;;;;;;;;;;;;;;;23.64;43.05;100762.83;109590;1273;22043;-82
2023/09/16 13:47:27;;;;;;;;;;;;;;;23.64;43.24;100759.80;110267;1262;21949;-82
2023/09/16 13:50:20;;;;;;;;;;;;;;;23.69;43.32;100761.17;110526;1265;23058;-82
2023/09/16 13:52:58;;;;;;;;;;;;;;;23.73;43.33;100756.33;110465;1265;23857;-82
2023/09/16 13:55:43;;;;;;;;;;;;;;;23.78;43.19;100749.55;110532;1260;21959;-83
2023/09/16 13:58:28;;;;;;;;;;;;;;;23.82;43.17;100748.73;110772;1260;22952;-82
2023/09/16 14:01:05;;;;;;;;;;;;;;;23.84;43.07;100744.92;110777;1260;22056;-81
2023/09/16 14:03:48;;;;;;;;;;;;;;;23.81;42.91;100745.89;110820;1257;21952;-81
2023/09/16 14:06:24;;;;;;;;;;;;;;;23.78;42.92;100747.81;110272;1266;21985;-82
2023/09/16 14:09:10;;;;;;;;;;;;;;;23.72;42.93;100745.64;110355;1262;21945;-82
2023/09/16 14:12:07;;;;;;;;;;;;;;;23.69;43.17;100737.56;110488;1262;22454;-81
2023/09/16 14:14:56;;;;;;;;;;;;;;;23.71;43.37;100737.34;110161;1267;21929;-82
2023/09/16 14:17:54;;;;;;;;;;;;;;;;;;;;;
2023/09/16 14:21:41;;;;;;;;;;;;;;;;;;;;;
2023/09/16 14:24:31;;;;;;;;;;;;;;;23.84;43.57;100718.16;110330;1262;22058;-81
2023/09/16 14:27:03;;;;;;;;;;;;;;;23.88;43.70;100716.50;110547;1262;21951;-83
2023/09/16 14:30:05;;;;;;;;;;;;;;;23.88;43.26;100717.23;110557;1257;21968;-82
2023/09/16 14:32:45;;;;;;;;;;;;;;;23.87;43.24;100713.65;110788;1257;22188;-82
2023/09/16 14:35:28;;;;;;;;;;;;;;;23.88;43.22;100714.44;111001;1256;21974;-83
2023/09/16 14:38:38;;;;;;;;;;;;;;;23.88;42.87;100709.64;110992;1257;23688;-82
2023/09/16 14:41:19;;;;;;;;;;;;;;;23.87;42.88;100706.96;110949;1255;22253;-81
2023/09/16 14:44:00;;;;;;;;;;;;;;;23.91;42.93;100708.48;110978;1258;23664;-82
2023/09/16 14:46:38;;;;;;;;;;;;;;;23.94;43.01;100706.58;110387;1263;21961;-81
2023/09/16 14:49:19;;;;;;;;;;;;;;;23.98;43.10;100711.58;110656;1263;23184;-82
2023/09/16 14:51:57;;;;;;;;;;;;;;;23.98;42.99;100711.19;110396;1262;23745;-80
2023/09/16 14:54:58;;;;;;;;;;;;;;;23.93;42.87;100703.08;110716;1262;21984;-82
2023/09/16 14:57:50;;;;;;;;;;;;;;;23.97;42.68;100705.61;110586;1262;22589;-82
2023/09/16 15:00:50;;;;;;;;;;;;;;;24.00;42.51;100700.25;110429;1267;21957;-79
2023/09/16 15:03:23;;;;;;;;;;;;;;;24.02;42.52;100696.11;110051;1260;21951;-84
2023/09/16 15:06:17;;;;;;;;;;;;;;;24.01;42.60;100693.15;110165;1260;21956;-82
2023/09/16 15:08:52;;;;;;;;;;;;;;;24.00;42.57;100691.10;109468;1273;22459;-81
2023/09/16 15:11:27;;;;;;;;;;;;;;;24.01;42.53;100687.53;109932;1268;21926;-85
2023/09/16 15:14:06;;;;;;;;;;;;;;;23.99;42.51;100687.34;110110;1268;21965;-83
2023/09/16 15:16:57;;;;;;;;;;;;;;;23.95;42.58;100689.42;110168;1261;21958;-82
2023/09/16 15:19:30;;;;;;;;;;;;;;;23.94;42.57;100682.77;110274;1262;22256;-84
2023/09/16 15:22:13;;;;;;;;;;;;;;;23.94;42.63;100681.34;110429;1262;22860;-83
2023/09/16 15:25:13;;;;;;;;;;;;;;;;;;;;;
2023/09/16 15:28:43;;;;;;;;;;;;;;;23.94;42.70;100678.52;110347;1266;21971;-86
2023/09/16 15:31:37;;;;;;;;;;;;;;;;;;;;;
2023/09/16 15:35:23;;;;;;;;;;;;;;;23.90;42.70;100673.34;110133;1270;21933;-85
2023/09/16 15:38:25;;;;;;;;;;;;;;;23.92;42.57;100669.64;109970;1270;22100;-85
2023/09/16 15:42:25;;;;;;;;;;;;;;;23.94;42.69;100664.95;109923;1269;22736;-83
2023/09/16 15:45:46;;;;;;;;;;;;;;;;;;;;;
2023/09/16 15:48:55;;;;;;;;;;;;;;;23.93;42.15;100655.49;109009;1271;23685;-81
2023/09/16 15:51:47;;;;;;;;;;;;;;;23.94;42.13;100656.65;109288;1276;21978;-82